In Rescue
 
Open Full Screen Window  High Contrast Mode
Wind Gusting 00 knots
04
July 23, 2019 12:13 AM CDT
Weather Information
Wind Direction
  260 °
Wind Speed
  04 kt (5 mph)
Wind Gust
  00 kt (0 mph)
Altimeter
30.25 in
Visibility
10 SM
Temperature
13° C
55° F
Dewpoint
12° C
54° F
Humidity
94%
1hr Rain Fall
00.00 in.
24hr Rain Fall
00.00 in.
Sky Condition
Clear
VFR

METAR KADC 230513Z AUTO 26004KT 10SM CLR 13/12 A3025 RMK AO2

FAA Disclaimer: The data displayed is for advisory purposes only and is not to be used for flight planning or operations.